This is the latest recevied weather packets stored in our database for station/object DG2GGP-11. If no packets are shown the sender has not sent any weather packets the latest 10 day(s).
| Time | Temp. | Humidity | Pressure | Rain* | Wind** | Luminosity | Snow |
|---|---|---|---|---|---|---|---|
| 1777526957 | 2.78° C | 66% | 1024.1 hPa | 0 mm | - | 5 W/m² | - |
| 1777526357 | 2.78° C | 68% | 1024 hPa | 0 mm | - | 3 W/m² | - |
| 1777525757 | 2.78° C | 67% | 1023.9 hPa | 0 mm | - | 3 W/m² | - |
| 1777525157 | 2.78° C | 65% | 1023.8 hPa | 0 mm | - | 2 W/m² | - |
| 1777524557 | 2.78° C | 64% | 1023.7 hPa | 0 mm | - | 2 W/m² | - |
| 1777523957 | 2.78° C | 64% | 1023.7 hPa | 0 mm | - | 1 W/m² | - |
| 1777523357 | 2.78° C | 65% | 1023.7 hPa | 0 mm | - | 0 W/m² | - |
| 1777522757 | 2.78° C | 65% | 1023.7 hPa | 0 mm | - | 0 W/m² | - |
| 1777522157 | 3.33° C | 62% | 1023.7 hPa | 0 mm | - | 0 W/m² | - |
| 1777521557 | 3.89° C | 61% | 1023.6 hPa | 0 mm | - | 0 W/m² | - |
| 1777520957 | 3.89° C | 61% | 1023.6 hPa | 0 mm | - | 0 W/m² | - |
| 1777520357 | 3.89° C | 61% | 1023.7 hPa | 0 mm | - | 0 W/m² | - |
| 1777519757 | 3.33° C | 63% | 1023.8 hPa | 0 mm | - | 0 W/m² | - |
| 1777519157 | 3.89° C | 63% | 1023.7 hPa | 0 mm | - | 0 W/m² | - |
| 1777518557 | 2.78° C | 67% | 1023.6 hPa | 0 mm | - | 0 W/m² | - |
| 1777517957 | 2.78° C | 68% | 1023.6 hPa | 0 mm | - | 0 W/m² | - |
| 1777517357 | 2.78° C | 68% | 1023.6 hPa | 0 mm | - | 0 W/m² | - |
| 1777516757 | 3.33° C | 66% | 1023.6 hPa | 0 mm | - | 0 W/m² | - |
| 1777516157 | 3.89° C | 63% | 1023.6 hPa | 0 mm | - | 0 W/m² | - |
| 1777515557 | 4.44° C | 60% | 1023.6 hPa | 0 mm | - | 0 W/m² | - |
| 1777514957 | 5° C | 57% | 1023.5 hPa | 0 mm | - | 0 W/m² | - |
| 1777514357 | 5° C | 57% | 1023.4 hPa | 0 mm | - | 0 W/m² | - |
| 1777513757 | 5° C | 57% | 1023.3 hPa | 0 mm | - | 0 W/m² | - |
| 1777513157 | 4.44° C | 59% | 1023.2 hPa | 0 mm | - | 0 W/m² | - |
| 1777512557 | 4.44° C | 61% | 1023.2 hPa | 0 mm | - | 0 W/m² | - |
* Rain latest hour (hover to see other rain measurements)
** Current wind speed in m/s (hover to see current wind gust speed)